Ever Decent — 9V7952 — position and weather

sailwx.info

Track history (hours):
 
Tides and Currents Weather Stations Pressure Air Temp Water Temp Dewpoint Dewpoint Depression Visibility Wind Speed Wind Dir Waves Ship Positions

Ever Decent

Last reported at 2015-Jan-26 08:27 UTC. Time now 2015-Jan-27 21:02 UTC.
Position N 30°30' E 122°46'.

Length 294 m; draft 12.1 m.

Type: Ship (hazmat cat D). MMSI: 564904000.

Date/timePositionNaut miles runAvg speedWind from/ knotsBaromVisibWave heightAir tempDewpointWater temp
2015-Jan-26 08:27N 30°30' E 122°46'1415.1
2015-Jan-26 07:33N 30°30' E 122°30'1211.9
2015-Jan-26 06:33N 30°33' E 122°17'1010.0
2015-Jan-26 05:32N 30°36' E 122°06'1 1.5
2015-Jan-26 04:33N 30°37' E 122°05'0 0.0
2015-Jan-26 03:24N 30°37' E 122°05'0 0.1
2015-Jan-26 02:24N 30°37' E 122°05'0 0.0
2015-Jan-26 01:33N 30°37' E 122°05'0 0.0
2015-Jan-26 00:27N 30°37' E 122°05'0 0.0
2015-Jan-25 23:33N 30°37' E 122°05'0 0.1
2015-Jan-25 22:33N 30°37' E 122°05'0 0.1
2015-Jan-25 21:33N 30°37' E 122°05'0 0.0
2015-Jan-25 20:33N 30°37' E 122°05'0 0.0
2015-Jan-25 19:33N 30°37' E 122°05'0 0.0
2015-Jan-25 18:30N 30°37' E 122°05'1 0.6
2015-Jan-25 17:33N 30°37' E 122°04'10 9.9
2015-Jan-25 16:33N 30°34' E 122°15'8 8.2
2015-Jan-25 15:33N 30°33' E 122°24'2711.8
2015-Jan-25 13:16N 30°23' E 122°54'2814.5
2015-Jan-25 11:20N 29°55' E 122°50'1316.4
2015-Jan-25 10:34N 29°45' E 122°41'1616.0
2015-Jan-25 09:33N 29°43' E 122°22'1313.4
2015-Jan-25 08:33N 29°52' E 122°11'7 6.1
2015-Jan-25 07:20N 29°53' E 122°03'0 0.0
2015-Jan-25 06:33N 29°53' E 122°03'0 0.0
2015-Jan-25 05:31N 29°53' E 122°03'0 0.0
2015-Jan-25 04:27N 29°53' E 122°03'0 0.0
2015-Jan-25 03:32N 29°53' E 122°03'0 0.0
2015-Jan-25 02:32N 29°53' E 122°03'0 0.0
2015-Jan-25 01:30N 29°53' E 122°03'0 0.0
2015-Jan-25 00:30N 29°53' E 122°03'0 0.0
2015-Jan-24 23:29N 29°53' E 122°03'0 0.0
2015-Jan-24 22:28N 29°53' E 122°03'0 0.0
2015-Jan-24 21:30N 29°53' E 122°03'6 5.8
2015-Jan-24 20:33N 29°55' E 122°09'1212.3
2015-Jan-24 19:33N 29°46' E 122°18'9 9.2
2015-Jan-24 18:33N 29°41' E 122°27'2 0.9
2015-Jan-24 16:24N 29°40' E 122°28'0 0.1
2015-Jan-24 15:24N 29°40' E 122°28'0 0.1
2015-Jan-24 14:12N 29°40' E 122°28'0 0.1
2015-Jan-24 10:18N 29°40' E 122°28'0 0.1
2015-Jan-24 09:18N 29°40' E 122°29'0 0.1
2015-Jan-24 07:30N 29°40' E 122°29'0 0.1
2015-Jan-24 05:12N 29°40' E 122°28'0 0.0
2015-Jan-24 01:18N 29°40' E 122°28'0 0.1
2015-Jan-23 22:29N 29°40' E 122°28'0 0.1
2015-Jan-23 19:16N 29°40' E 122°29'3 4.7
2015-Jan-23 18:33N 29°37' E 122°31'1512.5
2015-Jan-23 17:20N 29°22' E 122°34'1214.3
2015-Jan-23 16:29N 29°10' E 122°34'39713.2
2015-Jan-22 10:28N 23°42' E 118°25'1212.3
2015-Jan-22 09:31N 23°34' E 118°15'7412.3
2015-Jan-22 03:28N 22°49' E 117°10'1213.0
2015-Jan-22 02:33N 22°46' E 116°58'15012.1
2015-Jan-21 14:13N 22°34' E 114°16'1 1.3
2015-Jan-21 13:33N 22°34' E 114°16'0 0.0
2015-Jan-21 12:18N 22°34' E 114°16'0 0.0
2015-Jan-21 11:33N 22°34' E 114°16'0 0.0
2015-Jan-21 10:32N 22°34' E 114°16'0 0.0
2015-Jan-21 09:33N 22°34' E 114°16'0 0.0
2015-Jan-21 08:33N 22°34' E 114°16'0 0.0
2015-Jan-21 07:30N 22°34' E 114°16'0 0.0
2015-Jan-21 06:28N 22°34' E 114°16'17 7.5
2015-Jan-21 04:16N 22°22' E 114°28'1217.3
2015-Jan-21 03:33N 22°11' E 114°22'1110.6
2015-Jan-21 02:32N 22°12' E 114°10'8 8.0
2015-Jan-21 01:30N 22°20' E 114°07'1 0.6
2015-Jan-21 00:32N 22°20' E 114°08'0 0.0
2015-Jan-20 23:32N 22°20' E 114°08'0 0.0
2015-Jan-20 22:32N 22°20' E 114°08'0 0.0
2015-Jan-20 21:32N 22°20' E 114°08'0 0.0
2015-Jan-20 20:32N 22°20' E 114°08'0 0.0
2015-Jan-20 19:32N 22°20' E 114°08'0 0.0
2015-Jan-20 18:29N 22°20' E 114°08'0 0.0
2015-Jan-20 17:29N 22°20' E 114°08'0 0.0
2015-Jan-20 16:29N 22°20' E 114°08'0 0.0
2015-Jan-20 15:32N 22°20' E 114°08'0 0.0
2015-Jan-20 14:32N 22°20' E 114°08'0 0.0
2015-Jan-20 13:29N 22°20' E 114°08'0 0.0
2015-Jan-20 12:32N 22°20' E 114°08'0 0.1
2015-Jan-20 11:29N 22°20' E 114°08'3 2.8
2015-Jan-20 10:33N 22°18' E 114°06'10 9.6
2015-Jan-20 09:31N 22°10' E 114°13'1212.2
2015-Jan-20 08:33N 22°09' E 114°25'28719.0
2015-Jan-19 17:23N 22°28' E 119°35'1518.0
2015-Jan-19 16:33N 22°30' E 119°51'1817.7
2015-Jan-19 15:33N 22°33' E 120°10'9 8.4
2015-Jan-19 14:31N 22°33' E 120°20'0 0.0
2015-Jan-19 13:31N 22°33' E 120°20'0 0.0
2015-Jan-19 12:31N 22°33' E 120°20'0 0.0
2015-Jan-19 11:31N 22°33' E 120°20'0 0.0
2015-Jan-19 09:27N 22°33' E 120°20'1 0.4
2015-Jan-19 08:05N 22°33' E 120°20'0 0.0
2015-Jan-19 07:23N 22°33' E 120°20'0 0.0
2015-Jan-19 06:11N 22°33' E 120°20'0 0.0
2015-Jan-19 05:17N 22°33' E 120°20'0 0.0
2015-Jan-19 03:17N 22°33' E 120°20'0 0.0
2015-Jan-19 02:17N 22°33' E 120°20'0 0.0
2015-Jan-19 01:29N 22°33' E 120°20'0 0.0
2015-Jan-19 00:27N 22°33' E 120°20'0 0.0
2015-Jan-18 23:33N 22°33' E 120°20'0 0.0
2015-Jan-18 22:33N 22°33' E 120°20'0 0.0
2015-Jan-18 21:33N 22°33' E 120°20'0 0.0
2015-Jan-18 20:25N 22°33' E 120°20'0 0.0
2015-Jan-18 19:31N 22°33' E 120°20'0 0.0
2015-Jan-18 18:31N 22°33' E 120°20'0 0.0
2015-Jan-18 17:31N 22°33' E 120°20'0 0.0
2015-Jan-18 16:33N 22°33' E 120°20'4 4.2
2015-Jan-18 15:33N 22°32' E 120°15'5 5.3
2015-Jan-18 14:33N 22°28' E 120°12'5 5.3
2015-Jan-18 13:33N 22°23' E 120°15'1 1.2
2015-Jan-18 12:33N 22°24' E 120°14'1 1.1
2015-Jan-18 11:33N 22°24' E 120°13'1 1.2
2015-Jan-18 10:33N 22°25' E 120°12'1 1.0
2015-Jan-18 09:33N 22°26' E 120°11'1 1.2
2015-Jan-18 08:33N 22°27' E 120°11'1111.3
2015-Jan-18 07:33N 22°38' E 120°08'1313.1
2015-Jan-18 06:33N 22°49' E 120°01'  
Track history (hours):
 
Tides and Currents Weather Stations Pressure Air Temp Water Temp Dewpoint Dewpoint Depression Visibility Wind Speed Wind Dir Waves Ship Positions

Ever Decent

Last reported at 2015-Jan-26 08:27 UTC. Time now 2015-Jan-27 21:02 UTC.
Position N 30°30' E 122°46'.

Length 294 m; draft 12.1 m.

Type: Ship (hazmat cat D). MMSI: 564904000.

Date/timePositionNaut miles runAvg speedWind from/ knotsBaromVisibWave heightAir tempDewpointWater temp
2015-Jan-26 08:27N 30°30' E 122°46'1415.1
2015-Jan-26 07:33N 30°30' E 122°30'1211.9
2015-Jan-26 06:33N 30°33' E 122°17'1010.0
2015-Jan-26 05:32N 30°36' E 122°06'1 1.5
2015-Jan-26 04:33N 30°37' E 122°05'0 0.0
2015-Jan-26 03:24N 30°37' E 122°05'0 0.1
2015-Jan-26 02:24N 30°37' E 122°05'0 0.0
2015-Jan-26 01:33N 30°37' E 122°05'0 0.0
2015-Jan-26 00:27N 30°37' E 122°05'0 0.0
2015-Jan-25 23:33N 30°37' E 122°05'0 0.1
2015-Jan-25 22:33N 30°37' E 122°05'0 0.1
2015-Jan-25 21:33N 30°37' E 122°05'0 0.0
2015-Jan-25 20:33N 30°37' E 122°05'0 0.0
2015-Jan-25 19:33N 30°37' E 122°05'0 0.0
2015-Jan-25 18:30N 30°37' E 122°05'1 0.6
2015-Jan-25 17:33N 30°37' E 122°04'10 9.9
2015-Jan-25 16:33N 30°34' E 122°15'8 8.2
2015-Jan-25 15:33N 30°33' E 122°24'2711.8
2015-Jan-25 13:16N 30°23' E 122°54'2814.5
2015-Jan-25 11:20N 29°55' E 122°50'1316.4
2015-Jan-25 10:34N 29°45' E 122°41'1616.0
2015-Jan-25 09:33N 29°43' E 122°22'1313.4
2015-Jan-25 08:33N 29°52' E 122°11'7 6.1
2015-Jan-25 07:20N 29°53' E 122°03'0 0.0
2015-Jan-25 06:33N 29°53' E 122°03'0 0.0
2015-Jan-25 05:31N 29°53' E 122°03'0 0.0
2015-Jan-25 04:27N 29°53' E 122°03'0 0.0
2015-Jan-25 03:32N 29°53' E 122°03'0 0.0
2015-Jan-25 02:32N 29°53' E 122°03'0 0.0
2015-Jan-25 01:30N 29°53' E 122°03'0 0.0
2015-Jan-25 00:30N 29°53' E 122°03'0 0.0
2015-Jan-24 23:29N 29°53' E 122°03'0 0.0
2015-Jan-24 22:28N 29°53' E 122°03'0 0.0
2015-Jan-24 21:30N 29°53' E 122°03'6 5.8
2015-Jan-24 20:33N 29°55' E 122°09'1212.3
2015-Jan-24 19:33N 29°46' E 122°18'9 9.2
2015-Jan-24 18:33N 29°41' E 122°27'2 0.9
2015-Jan-24 16:24N 29°40' E 122°28'0 0.1
2015-Jan-24 15:24N 29°40' E 122°28'0 0.1
2015-Jan-24 14:12N 29°40' E 122°28'0 0.1
2015-Jan-24 10:18N 29°40' E 122°28'0 0.1
2015-Jan-24 09:18N 29°40' E 122°29'0 0.1
2015-Jan-24 07:30N 29°40' E 122°29'0 0.1
2015-Jan-24 05:12N 29°40' E 122°28'0 0.0
2015-Jan-24 01:18N 29°40' E 122°28'0 0.1
2015-Jan-23 22:29N 29°40' E 122°28'0 0.1
2015-Jan-23 19:16N 29°40' E 122°29'3 4.7
2015-Jan-23 18:33N 29°37' E 122°31'1512.5
2015-Jan-23 17:20N 29°22' E 122°34'1214.3
2015-Jan-23 16:29N 29°10' E 122°34'39713.2
2015-Jan-22 10:28N 23°42' E 118°25'1212.3
2015-Jan-22 09:31N 23°34' E 118°15'7412.3
2015-Jan-22 03:28N 22°49' E 117°10'1213.0
2015-Jan-22 02:33N 22°46' E 116°58'15012.1
2015-Jan-21 14:13N 22°34' E 114°16'1 1.3
2015-Jan-21 13:33N 22°34' E 114°16'0 0.0
2015-Jan-21 12:18N 22°34' E 114°16'0 0.0
2015-Jan-21 11:33N 22°34' E 114°16'0 0.0
2015-Jan-21 10:32N 22°34' E 114°16'0 0.0
2015-Jan-21 09:33N 22°34' E 114°16'0 0.0
2015-Jan-21 08:33N 22°34' E 114°16'0 0.0
2015-Jan-21 07:30N 22°34' E 114°16'0 0.0
2015-Jan-21 06:28N 22°34' E 114°16'17 7.5
2015-Jan-21 04:16N 22°22' E 114°28'1217.3
2015-Jan-21 03:33N 22°11' E 114°22'1110.6
2015-Jan-21 02:32N 22°12' E 114°10'8 8.0
2015-Jan-21 01:30N 22°20' E 114°07'1 0.6
2015-Jan-21 00:32N 22°20' E 114°08'0 0.0
2015-Jan-20 23:32N 22°20' E 114°08'0 0.0
2015-Jan-20 22:32N 22°20' E 114°08'0 0.0
2015-Jan-20 21:32N 22°20' E 114°08'0 0.0
2015-Jan-20 20:32N 22°20' E 114°08'0 0.0
2015-Jan-20 19:32N 22°20' E 114°08'0 0.0
2015-Jan-20 18:29N 22°20' E 114°08'0 0.0
2015-Jan-20 17:29N 22°20' E 114°08'0 0.0
2015-Jan-20 16:29N 22°20' E 114°08'0 0.0
2015-Jan-20 15:32N 22°20' E 114°08'0 0.0
2015-Jan-20 14:32N 22°20' E 114°08'0 0.0
2015-Jan-20 13:29N 22°20' E 114°08'0 0.0
2015-Jan-20 12:32N 22°20' E 114°08'0 0.1
2015-Jan-20 11:29N 22°20' E 114°08'3 2.8
2015-Jan-20 10:33N 22°18' E 114°06'10 9.6
2015-Jan-20 09:31N 22°10' E 114°13'1212.2
2015-Jan-20 08:33N 22°09' E 114°25'28719.0
2015-Jan-19 17:23N 22°28' E 119°35'1518.0
2015-Jan-19 16:33N 22°30' E 119°51'1817.7
2015-Jan-19 15:33N 22°33' E 120°10'9 8.4
2015-Jan-19 14:31N 22°33' E 120°20'0 0.0
2015-Jan-19 13:31N 22°33' E 120°20'0 0.0
2015-Jan-19 12:31N 22°33' E 120°20'0 0.0
2015-Jan-19 11:31N 22°33' E 120°20'0 0.0
2015-Jan-19 09:27N 22°33' E 120°20'1 0.4
2015-Jan-19 08:05N 22°33' E 120°20'0 0.0
2015-Jan-19 07:23N 22°33' E 120°20'0 0.0
2015-Jan-19 06:11N 22°33' E 120°20'0 0.0
2015-Jan-19 05:17N 22°33' E 120°20'0 0.0
2015-Jan-19 03:17N 22°33' E 120°20'0 0.0
2015-Jan-19 02:17N 22°33' E 120°20'0 0.0
2015-Jan-19 01:29N 22°33' E 120°20'0 0.0
2015-Jan-19 00:27N 22°33' E 120°20'0 0.0
2015-Jan-18 23:33N 22°33' E 120°20'0 0.0
2015-Jan-18 22:33N 22°33' E 120°20'0 0.0
2015-Jan-18 21:33N 22°33' E 120°20'0 0.0
2015-Jan-18 20:25N 22°33' E 120°20'0 0.0
2015-Jan-18 19:31N 22°33' E 120°20'0 0.0
2015-Jan-18 18:31N 22°33' E 120°20'0 0.0
2015-Jan-18 17:31N 22°33' E 120°20'0 0.0
2015-Jan-18 16:33N 22°33' E 120°20'4 4.2
2015-Jan-18 15:33N 22°32' E 120°15'5 5.3
2015-Jan-18 14:33N 22°28' E 120°12'5 5.3
2015-Jan-18 13:33N 22°23' E 120°15'1 1.2
2015-Jan-18 12:33N 22°24' E 120°14'1 1.1
2015-Jan-18 11:33N 22°24' E 120°13'1 1.2
2015-Jan-18 10:33N 22°25' E 120°12'1 1.0
2015-Jan-18 09:33N 22°26' E 120°11'1 1.2
2015-Jan-18 08:33N 22°27' E 120°11'1111.3
2015-Jan-18 07:33N 22°38' E 120°08'1313.1
2015-Jan-18 06:33N 22°49' E 120°01'  

Dump ship's entire track history